createdAt,value
2022-09-11T00:01:14.294Z,5.05
2022-09-11T00:03:42.686Z,5.33
2022-09-11T00:06:14.668Z,4.90
2022-09-11T00:08:42.320Z,4.60
2022-09-11T00:11:17.506Z,3.92
2022-09-11T00:13:48.789Z,4.30
2022-09-11T00:16:41.402Z,4.40
2022-09-11T00:19:15.593Z,4.55
2022-09-11T00:21:42.057Z,5.82
2022-09-11T00:24:11.508Z,4.95
2022-09-11T00:26:38.923Z,5.10
2022-09-11T00:29:05.538Z,5.17
2022-09-11T00:31:32.695Z,5.50
2022-09-11T00:33:59.675Z,5.60
2022-09-11T00:36:29.174Z,4.82
2022-09-11T00:38:56.297Z,5.00
2022-09-11T00:41:25.580Z,4.53
2022-09-11T00:44:08.004Z,4.28
2022-09-11T00:46:41.947Z,5.20
2022-09-11T00:49:22.240Z,4.60
2022-09-11T00:51:54.983Z,4.90
2022-09-11T00:54:28.786Z,4.87
2022-09-11T00:57:03.015Z,5.38
2022-09-11T00:59:34.433Z,4.80
2022-09-11T01:02:02.550Z,5.45
2022-09-11T01:04:29.388Z,5.47
2022-09-11T01:06:57.928Z,5.13
2022-09-11T01:09:29.338Z,5.07
2022-09-11T01:12:07.011Z,5.13
2022-09-11T01:14:55.332Z,5.50
2022-09-11T01:17:33.711Z,4.93
2022-09-11T01:20:19.104Z,5.47
2022-09-11T01:23:01.212Z,5.40
2022-09-11T01:25:39.931Z,5.10
2022-09-11T01:28:20.404Z,5.57
2022-09-11T01:30:54.512Z,5.22
2022-09-11T01:33:28.417Z,5.27
2022-09-11T01:36:06.359Z,5.20
2022-09-11T01:38:42.089Z,5.25
2022-09-11T01:41:15.589Z,5.25
2022-09-11T01:44:03.770Z,4.70
2022-09-11T01:46:36.948Z,4.70
2022-09-11T01:49:10.232Z,5.07
2022-09-11T01:51:40.381Z,5.20
2022-09-11T01:54:33.284Z,5.35
2022-09-11T01:57:06.531Z,5.25
2022-09-11T01:59:46.952Z,5.60
2022-09-11T02:02:20.505Z,5.03
2022-09-11T02:04:55.525Z,5.65
2022-09-11T02:07:29.123Z,4.50
2022-09-11T02:10:02.766Z,4.93
2022-09-11T02:12:46.061Z,4.17
2022-09-11T02:15:15.990Z,5.03
2022-09-11T02:18:02.447Z,4.70
2022-09-11T02:20:29.735Z,4.88
2022-09-11T02:22:57.196Z,5.47
2022-09-11T02:25:23.853Z,4.57
2022-09-11T02:27:50.521Z,4.75
2022-09-11T02:30:17.053Z,4.60
2022-09-11T02:32:45.035Z,5.00
2022-09-11T02:35:12.137Z,5.55
2022-09-11T02:37:56.856Z,5.00
2022-09-11T02:41:09.314Z,5.78
2022-09-11T02:43:58.835Z,5.55
2022-09-11T02:46:54.867Z,4.70
2022-09-11T02:49:44.792Z,5.00
2022-09-11T02:52:46.186Z,5.90
2022-09-11T02:55:24.676Z,5.32
2022-09-11T02:58:15.745Z,5.20
2022-09-11T03:00:42.519Z,4.90
2022-09-11T03:03:08.925Z,4.75
2022-09-11T03:05:37.236Z,4.40
2022-09-11T03:08:04.381Z,4.68
2022-09-11T03:10:30.903Z,5.10
2022-09-11T03:12:59.744Z,5.18
2022-09-11T03:15:27.356Z,4.28
2022-09-11T03:17:53.944Z,4.47
2022-09-11T03:20:22.070Z,4.40
2022-09-11T03:22:48.496Z,4.43
2022-09-11T03:25:20.492Z,5.13
2022-09-11T03:27:47.213Z,4.88
2022-09-11T03:30:13.702Z,5.40
2022-09-11T03:32:40.196Z,4.72
2022-09-11T03:35:06.928Z,4.97
2022-09-11T03:37:33.440Z,5.60
2022-09-11T03:40:01.495Z,5.53
2022-09-11T03:42:28.057Z,5.20
2022-09-11T03:44:54.677Z,4.10
2022-09-11T03:47:22.172Z,4.53
2022-09-11T03:49:48.775Z,5.85
2022-09-11T03:52:15.161Z,4.63
2022-09-11T03:54:42.123Z,5.33
2022-09-11T03:57:09.601Z,5.43
2022-09-11T03:59:35.952Z,4.50
2022-09-11T04:02:02.351Z,4.95
2022-09-11T04:04:28.782Z,4.75
2022-09-11T04:06:55.693Z,5.50
2022-09-11T04:09:22.296Z,5.18
2022-09-11T04:11:48.653Z,4.55
2022-09-11T04:14:15.902Z,4.50
2022-09-11T04:16:42.999Z,4.85
2022-09-11T04:19:10.490Z,4.77
2022-09-11T04:21:36.995Z,4.43
2022-09-11T04:24:03.523Z,4.55
2022-09-11T04:26:32.470Z,5.32
2022-09-11T04:28:59.998Z,5.88
2022-09-11T04:31:30.104Z,5.07
2022-09-11T04:33:58.143Z,4.72
2022-09-11T04:36:27.154Z,4.82
2022-09-11T04:38:56.165Z,4.75
2022-09-11T04:41:22.912Z,5.63
2022-09-11T04:43:49.855Z,4.90
2022-09-11T04:46:17.696Z,4.78
2022-09-11T04:48:45.411Z,6.03
2022-09-11T04:51:20.587Z,6.57
2022-09-11T04:53:47.226Z,7.10
2022-09-11T04:56:14.195Z,7.00
2022-09-11T04:58:41.628Z,8.05
2022-09-11T05:01:10.454Z,7.13
2022-09-11T05:03:37.066Z,7.47
2022-09-11T05:06:05.765Z,7.70
2022-09-11T05:08:33.508Z,7.33
2022-09-11T05:11:01.232Z,7.30
2022-09-11T05:13:28.119Z,7.32
2022-09-11T05:16:01.169Z,7.78
2022-09-11T05:18:27.850Z,9.00
2022-09-11T05:21:06.377Z,8.87
2022-09-11T05:23:34.157Z,8.93
2022-09-11T05:26:02.632Z,9.15
2022-09-11T05:28:31.048Z,8.20
2022-09-11T05:30:58.761Z,8.73
2022-09-11T05:33:26.875Z,8.43
2022-09-11T05:36:02.606Z,8.15
2022-09-11T05:38:33.608Z,8.02
2022-09-11T05:41:02.664Z,8.60
2022-09-11T05:43:29.177Z,8.50
2022-09-11T05:45:59.839Z,8.70
2022-09-11T05:48:31.300Z,7.15
2022-09-11T05:51:24.359Z,9.52
2022-09-11T05:53:55.575Z,8.25
2022-09-11T05:56:23.893Z,8.68
2022-09-11T05:58:53.764Z,9.00
2022-09-11T06:01:27.786Z,8.00
2022-09-11T06:03:55.173Z,8.13
2022-09-11T06:06:23.003Z,8.43
2022-09-11T06:08:51.739Z,9.68
2022-09-11T06:11:20.029Z,7.90
2022-09-11T06:13:47.316Z,7.40
2022-09-11T06:16:19.343Z,7.57
2022-09-11T06:18:48.975Z,7.13
2022-09-11T06:21:19.358Z,8.27
2022-09-11T06:23:51.856Z,7.03
2022-09-11T06:26:21.492Z,7.13
2022-09-11T06:28:48.665Z,7.07
2022-09-11T06:31:17.480Z,7.10
2022-09-11T06:33:44.265Z,7.07
2022-09-11T06:36:23.260Z,6.67
2022-09-11T06:38:55.240Z,6.53
2022-09-11T06:41:22.602Z,6.28
2022-09-11T06:43:49.330Z,7.07
2022-09-11T06:46:21.752Z,6.53
2022-09-11T06:48:49.765Z,5.77
2022-09-11T06:51:19.298Z,5.72
2022-09-11T06:53:47.467Z,6.32
2022-09-11T06:56:17.012Z,6.18
2022-09-11T06:58:45.143Z,6.05
2022-09-11T07:01:14.125Z,6.60
2022-09-11T07:03:49.207Z,6.47
2022-09-11T07:06:18.361Z,6.95
2022-09-11T07:08:50.868Z,7.38
2022-09-11T07:11:17.918Z,6.40
2022-09-11T07:13:44.830Z,6.37
2022-09-11T07:16:13.524Z,6.32
2022-09-11T07:18:42.303Z,6.40
2022-09-11T07:21:11.836Z,5.70
2022-09-11T07:23:39.411Z,6.70
2022-09-11T07:26:08.781Z,6.82
2022-09-11T07:28:37.571Z,6.63
2022-09-11T07:31:20.504Z,6.13
2022-09-11T07:33:52.347Z,7.25
2022-09-11T07:36:21.444Z,7.25
2022-09-11T07:38:49.652Z,7.93
2022-09-11T07:41:18.092Z,6.88
2022-09-11T07:43:50.605Z,7.95
2022-09-11T07:46:17.344Z,7.60
2022-09-11T07:48:43.880Z,7.93
2022-09-11T07:51:13.370Z,8.02
2022-09-11T07:53:48.411Z,8.03
2022-09-11T07:56:20.990Z,7.95
2022-09-11T07:58:47.960Z,8.77
2022-09-11T08:01:19.924Z,8.57
2022-09-11T08:03:47.084Z,8.82
2022-09-11T08:06:21.399Z,8.00
2022-09-11T08:08:52.424Z,8.18
2022-09-11T08:11:19.676Z,7.53
2022-09-11T08:13:51.732Z,9.32
2022-09-11T08:16:19.602Z,8.23
2022-09-11T08:18:46.891Z,8.57
2022-09-11T08:21:13.356Z,8.35
2022-09-11T08:23:42.343Z,9.23
2022-09-11T08:26:22.019Z,7.90
2022-09-11T08:28:50.545Z,8.80
2022-09-11T08:31:19.610Z,8.00
2022-09-11T08:33:46.112Z,8.23
2022-09-11T08:36:16.376Z,7.25
2022-09-11T08:38:44.549Z,7.75
2022-09-11T08:41:41.218Z,6.95
2022-09-11T08:44:21.099Z,2.20
2022-09-11T08:46:53.304Z,3.55
2022-09-11T08:49:19.840Z,3.30
2022-09-11T08:51:49.016Z,2.40
2022-09-11T08:54:31.953Z,3.17
2022-09-11T08:57:27.083Z,2.97
2022-09-11T09:00:07.027Z,3.67
2022-09-11T09:03:02.591Z,2.80
2022-09-11T09:05:50.915Z,2.63
2022-09-11T09:08:50.092Z,2.72
2022-09-11T09:11:42.974Z,3.17
2022-09-11T09:14:31.336Z,2.40
2022-09-11T09:17:12.495Z,2.45
2022-09-11T09:19:46.567Z,1.33
2022-09-11T09:22:38.162Z,1.50
2022-09-11T09:25:11.252Z,1.63
2022-09-11T09:27:45.819Z,1.90
2022-09-11T09:30:18.861Z,1.75
2022-09-11T09:33:03.552Z,1.60
2022-09-11T09:35:40.653Z,1.08
2022-09-11T09:38:14.156Z,1.23
2022-09-11T09:41:03.524Z,1.13
2022-09-11T09:43:42.636Z,1.10
2022-09-11T09:46:21.408Z,1.30
2022-09-11T09:48:47.794Z,1.45
2022-09-11T09:51:15.035Z,1.30
2022-09-11T09:53:58.225Z,1.30
2022-09-11T09:56:24.996Z,1.13
2022-09-11T09:59:00.946Z,1.50
2022-09-11T10:01:39.872Z,1.20
2022-09-11T10:04:13.348Z,1.23
2022-09-11T10:06:39.895Z,1.40
2022-09-11T10:09:06.589Z,1.45
2022-09-11T10:11:33.160Z,1.50
2022-09-11T10:13:59.665Z,2.05
2022-09-11T10:16:27.971Z,1.67
2022-09-11T10:18:55.976Z,2.03
2022-09-11T10:21:29.775Z,1.58
2022-09-11T10:24:09.067Z,1.70
2022-09-11T10:26:35.548Z,1.70
2022-09-11T10:29:11.967Z,1.87
2022-09-11T10:31:41.149Z,2.67
2022-09-11T10:34:16.190Z,2.35
2022-09-11T10:36:55.431Z,2.85
2022-09-11T10:39:25.257Z,1.90
2022-09-11T10:41:54.841Z,1.67
2022-09-11T10:44:22.524Z,1.80
2022-09-11T10:47:16.186Z,1.98
2022-09-11T10:49:42.828Z,2.30
2022-09-11T10:52:09.268Z,1.73
2022-09-11T10:54:54.329Z,1.90
2022-09-11T10:57:26.240Z,1.30
2022-09-11T11:00:17.420Z,1.77
2022-09-11T11:02:48.441Z,1.38
2022-09-11T11:05:30.184Z,1.55
2022-09-11T11:08:02.596Z,1.33
2022-09-11T11:10:37.924Z,1.00
2022-09-11T11:13:46.945Z,1.20
2022-09-11T11:16:30.408Z,1.30
2022-09-11T11:19:12.259Z,1.20
2022-09-11T11:22:08.392Z,1.63
2022-09-11T11:24:43.372Z,1.35
2022-09-11T11:28:00.400Z,1.60
2022-09-11T11:30:41.987Z,1.48
2022-09-11T11:33:19.924Z,1.50
2022-09-11T11:36:15.466Z,1.30
2022-09-11T11:38:49.156Z,1.30
2022-09-11T11:41:22.714Z,1.58
2022-09-11T11:43:52.562Z,1.27
2022-09-11T11:46:38.873Z,1.10
2022-09-11T11:49:13.929Z,1.50
2022-09-11T11:51:56.204Z,1.40
2022-09-11T11:54:32.921Z,1.30
2022-09-11T11:57:10.158Z,0.95
2022-09-11T11:59:54.182Z,0.93
2022-09-11T12:02:45.708Z,1.13
2022-09-11T12:05:24.297Z,1.00
2022-09-11T12:07:51.782Z,1.23
2022-09-11T12:10:22.411Z,0.98
2022-09-11T12:12:53.789Z,1.10
2022-09-11T12:15:22.926Z,1.10
2022-09-11T12:18:00.553Z,1.15
2022-09-11T12:20:35.184Z,1.00
2022-09-11T12:23:02.515Z,1.02
2022-09-11T12:25:28.955Z,1.00
2022-09-11T12:28:22.613Z,1.20
2022-09-11T12:31:11.415Z,1.33
2022-09-11T12:33:41.125Z,1.20
2022-09-11T12:36:11.388Z,1.20
2022-09-11T12:38:41.728Z,1.20
2022-09-11T12:41:22.595Z,1.00
2022-09-11T12:43:50.229Z,1.20
2022-09-11T12:46:22.527Z,1.20
2022-09-11T12:49:17.992Z,0.98
2022-09-11T12:51:50.006Z,1.23
2022-09-11T12:54:19.376Z,1.07
2022-09-11T12:56:48.604Z,0.93
2022-09-11T12:59:25.716Z,1.13
2022-09-11T13:01:53.623Z,1.02
2022-09-11T13:04:31.343Z,1.02
2022-09-11T13:07:00.464Z,1.00
2022-09-11T13:09:30.863Z,1.20
2022-09-11T13:12:26.058Z,1.00
2022-09-11T13:14:56.807Z,1.10
2022-09-11T13:17:26.540Z,1.30
2022-09-11T13:20:09.742Z,1.30
2022-09-11T13:22:36.508Z,1.30
2022-09-11T13:25:23.370Z,1.30
2022-09-11T13:27:52.671Z,1.67
2022-09-11T13:30:21.982Z,1.40
2022-09-11T13:32:54.420Z,1.20
2022-09-11T13:35:27.785Z,1.20
2022-09-11T13:38:02.764Z,1.08
2022-09-11T13:40:44.776Z,1.10
2022-09-11T13:43:17.388Z,1.15
2022-09-11T13:45:44.542Z,1.00
2022-09-11T13:48:23.916Z,1.23
2022-09-11T13:50:51.380Z,1.13
2022-09-11T13:53:22.679Z,1.02
2022-09-11T13:55:49.652Z,1.70
2022-09-11T13:58:35.456Z,1.00
2022-09-11T14:01:12.194Z,0.77
2022-09-11T14:03:44.182Z,1.13
2022-09-11T14:06:16.156Z,0.93
2022-09-11T14:08:49.015Z,1.00
2022-09-11T14:11:29.359Z,0.90
2022-09-11T14:14:05.700Z,0.95
2022-09-11T14:16:35.632Z,1.20
2022-09-11T14:19:11.384Z,1.00
2022-09-11T14:21:41.644Z,1.10
2022-09-11T14:24:28.656Z,1.40
2022-09-11T14:26:58.551Z,1.08
2022-09-11T14:29:33.677Z,1.48
2022-09-11T14:32:33.901Z,1.40
2022-09-11T14:35:09.674Z,1.30
2022-09-11T14:37:43.559Z,1.03
2022-09-11T14:40:19.604Z,1.02
2022-09-11T14:42:46.964Z,0.98
2022-09-11T14:45:22.319Z,1.13
2022-09-11T14:47:48.872Z,1.17
2022-09-11T14:50:15.362Z,1.37
2022-09-11T14:52:44.848Z,1.10
2022-09-11T14:55:19.361Z,1.35
2022-09-11T14:57:48.721Z,1.30
2022-09-11T15:00:19.279Z,1.70
2022-09-11T15:02:46.567Z,1.00
2022-09-11T15:05:16.670Z,1.45
2022-09-11T15:07:46.006Z,0.77
2022-09-11T15:10:14.097Z,0.70
2022-09-11T15:12:40.676Z,0.82
2022-09-11T15:15:07.805Z,0.90
2022-09-11T15:17:36.325Z,0.80
2022-09-11T15:20:08.309Z,0.93
2022-09-11T15:22:35.245Z,1.00
2022-09-11T15:25:04.860Z,1.10
2022-09-11T15:27:31.495Z,1.10
2022-09-11T15:29:57.848Z,1.00
2022-09-11T15:32:24.255Z,1.20
2022-09-11T15:34:51.756Z,1.00
2022-09-11T15:37:18.368Z,1.00
2022-09-11T15:39:45.068Z,0.80
2022-09-11T15:42:12.638Z,0.80
2022-09-11T15:44:38.991Z,0.80
2022-09-11T15:47:05.716Z,1.05
2022-09-11T15:49:32.319Z,1.17
2022-09-11T15:51:59.787Z,1.00
2022-09-11T15:54:27.266Z,1.20
2022-09-11T15:56:54.409Z,1.10
2022-09-11T15:59:20.771Z,1.60
2022-09-11T16:01:47.183Z,1.30
2022-09-11T16:04:17.392Z,1.00
2022-09-11T16:06:45.941Z,1.20
2022-09-11T16:09:24.216Z,1.15
2022-09-11T16:11:51.529Z,1.00
2022-09-11T16:14:19.735Z,1.10
2022-09-11T16:16:47.228Z,1.03
2022-09-11T16:19:15.312Z,0.88
2022-09-11T16:21:41.735Z,1.10
2022-09-11T16:24:08.141Z,0.98
2022-09-11T16:26:38.351Z,0.98
2022-09-11T16:29:08.884Z,1.27
2022-09-11T16:31:35.850Z,0.98
2022-09-11T16:34:04.695Z,1.45
2022-09-11T16:36:38.479Z,1.98
2022-09-11T16:39:13.770Z,1.50
2022-09-11T16:41:45.225Z,1.50
2022-09-11T16:44:14.209Z,2.10
2022-09-11T16:46:42.291Z,1.30
2022-09-11T16:49:10.236Z,1.00
2022-09-11T16:51:36.629Z,1.23
2022-09-11T16:54:04.376Z,1.30
2022-09-11T16:56:30.941Z,1.20
2022-09-11T16:58:57.722Z,1.30
2022-09-11T17:01:26.339Z,0.80
2022-09-11T17:03:55.780Z,1.10
2022-09-11T17:06:29.927Z,1.27
2022-09-11T17:08:59.810Z,1.30
2022-09-11T17:11:27.499Z,1.38
2022-09-11T17:13:54.202Z,1.00
2022-09-11T17:16:24.728Z,1.02
2022-09-11T17:18:54.023Z,0.95
2022-09-11T17:21:25.168Z,1.20
2022-09-11T17:23:53.815Z,1.17
2022-09-11T17:26:21.853Z,0.85
2022-09-11T17:28:50.100Z,1.20
2022-09-11T17:31:19.196Z,1.00
2022-09-11T17:33:46.918Z,1.20
2022-09-11T17:36:15.261Z,0.93
2022-09-11T17:38:51.895Z,0.98
2022-09-11T17:41:20.798Z,0.95
2022-09-11T17:43:48.224Z,1.00
2022-09-11T17:46:17.589Z,1.10
2022-09-11T17:48:45.453Z,1.30
2022-09-11T17:51:17.720Z,1.08
2022-09-11T17:53:47.274Z,0.93
2022-09-11T17:56:19.887Z,1.10
2022-09-11T17:58:50.844Z,1.13
2022-09-11T18:01:17.388Z,1.27
2022-09-11T18:03:49.292Z,1.30
2022-09-11T18:06:46.835Z,1.13
2022-09-11T18:09:19.508Z,1.30
2022-09-11T18:11:48.604Z,1.20
2022-09-11T18:14:16.649Z,1.30
2022-09-11T18:16:45.121Z,1.27
2022-09-11T18:19:12.656Z,1.20
2022-09-11T18:21:39.533Z,0.95
2022-09-11T18:24:07.209Z,1.48
2022-09-11T18:26:41.657Z,1.08
2022-09-11T18:29:16.686Z,1.30
2022-09-11T18:31:50.118Z,1.15
2022-09-11T18:34:19.760Z,1.00
2022-09-11T18:36:46.847Z,1.20
2022-09-11T18:39:22.366Z,1.58
2022-09-11T18:41:50.093Z,1.27
2022-09-11T18:44:20.092Z,1.27
2022-09-11T18:46:47.660Z,1.33
2022-09-11T18:49:15.394Z,1.17
2022-09-11T18:51:42.437Z,1.40
2022-09-11T18:54:20.847Z,1.30
2022-09-11T18:56:49.266Z,1.40
2022-09-11T18:59:16.184Z,1.40
2022-09-11T19:01:42.687Z,1.35
2022-09-11T19:04:11.884Z,1.40
2022-09-11T19:06:39.082Z,1.77
2022-09-11T19:09:07.572Z,1.60
2022-09-11T19:11:34.277Z,1.70
2022-09-11T19:14:06.296Z,1.80
2022-09-11T19:16:33.808Z,1.80
2022-09-11T19:19:02.785Z,1.50
2022-09-11T19:21:29.211Z,2.03
2022-09-11T19:24:01.281Z,2.15
2022-09-11T19:26:38.099Z,2.47
2022-09-11T19:29:06.279Z,2.35
2022-09-11T19:31:33.749Z,2.40
2022-09-11T19:34:02.041Z,2.15
2022-09-11T19:36:31.030Z,2.00
2022-09-11T19:39:00.724Z,2.20
2022-09-11T19:41:33.140Z,1.88
2022-09-11T19:44:04.450Z,1.73
2022-09-11T19:46:33.039Z,2.20
2022-09-11T19:49:02.850Z,1.80
2022-09-11T19:51:31.693Z,2.20
2022-09-11T19:54:00.550Z,2.17
2022-09-11T19:56:28.237Z,1.90
2022-09-11T19:58:55.136Z,2.10
2022-09-11T20:01:24.039Z,2.22
2022-09-11T20:03:55.261Z,1.73
2022-09-11T20:06:24.238Z,1.90
2022-09-11T20:08:59.159Z,1.77
2022-09-11T20:11:38.608Z,2.20
2022-09-11T20:14:05.588Z,1.80
2022-09-11T20:16:32.206Z,1.90
2022-09-11T20:19:06.691Z,1.65
2022-09-11T20:21:35.204Z,1.85
2022-09-11T20:24:02.436Z,1.90
2022-09-11T20:26:30.288Z,1.80
2022-09-11T20:29:00.757Z,2.13
2022-09-11T20:31:30.244Z,1.85
2022-09-11T20:33:57.092Z,1.98
2022-09-11T20:36:27.145Z,1.87
2022-09-11T20:38:58.155Z,1.42
2022-09-11T20:41:29.582Z,1.95
2022-09-11T20:43:57.616Z,1.75
2022-09-11T20:46:24.094Z,1.58
2022-09-11T20:48:53.094Z,1.77
2022-09-11T20:51:21.313Z,1.65
2022-09-11T20:53:48.348Z,1.50
2022-09-11T20:56:17.685Z,1.63
2022-09-11T20:58:44.840Z,1.80
2022-09-11T21:01:16.209Z,1.83
2022-09-11T21:03:48.192Z,1.40
2022-09-11T21:06:14.805Z,1.92
2022-09-11T21:08:42.344Z,1.90
2022-09-11T21:11:09.616Z,1.88
2022-09-11T21:13:41.429Z,1.40
2022-09-11T21:16:11.148Z,1.50
2022-09-11T21:18:38.483Z,1.58
2022-09-11T21:21:05.247Z,1.30
2022-09-11T21:23:31.838Z,1.40
2022-09-11T21:25:58.378Z,1.60
2022-09-11T21:28:24.772Z,1.90
2022-09-11T21:30:51.209Z,1.77
2022-09-11T21:33:18.415Z,1.67
2022-09-11T21:35:50.831Z,1.67
2022-09-11T21:38:17.201Z,1.77
2022-09-11T21:40:43.717Z,1.90
2022-09-11T21:43:10.088Z,1.55
2022-09-11T21:45:36.465Z,1.77
2022-09-11T21:48:03.216Z,1.40
2022-09-11T21:50:29.568Z,1.30
2022-09-11T21:52:55.900Z,1.50
2022-09-11T21:55:23.492Z,1.25
2022-09-11T21:57:49.844Z,2.08
2022-09-11T22:00:16.254Z,1.60
2022-09-11T22:02:42.784Z,1.47
2022-09-11T22:05:09.440Z,1.77
2022-09-11T22:07:36.241Z,1.67
2022-09-11T22:10:08.585Z,1.60
2022-09-11T22:12:35.191Z,1.75
2022-09-11T22:15:02.252Z,1.70
2022-09-11T22:17:28.763Z,2.30
2022-09-11T22:19:55.740Z,2.00
2022-09-11T22:22:22.672Z,1.88
2022-09-11T22:24:52.104Z,2.58
2022-09-11T22:27:27.984Z,2.00
2022-09-11T22:29:54.335Z,2.10
2022-09-11T22:32:20.688Z,1.75
2022-09-11T22:34:47.363Z,1.83
2022-09-11T22:37:13.711Z,2.20
2022-09-11T22:39:40.175Z,1.70
2022-09-11T22:42:06.960Z,1.90
2022-09-11T22:44:33.541Z,1.98
2022-09-11T22:47:00.170Z,1.77
2022-09-11T22:49:27.072Z,1.83
2022-09-11T22:51:53.414Z,1.80
2022-09-11T22:54:19.917Z,1.60
2022-09-11T22:56:46.276Z,1.80
2022-09-11T22:59:12.959Z,2.00
2022-09-11T23:01:39.761Z,1.60
2022-09-11T23:04:06.168Z,1.57
2022-09-11T23:06:51.187Z,1.80
2022-09-11T23:09:20.558Z,1.60
2022-09-11T23:11:47.646Z,1.63
2022-09-11T23:14:15.061Z,1.48
2022-09-11T23:16:42.390Z,1.80
2022-09-11T23:19:11.663Z,1.60
2022-09-11T23:21:38.158Z,1.80
2022-09-11T23:24:06.279Z,1.65
2022-09-11T23:26:33.695Z,1.67
2022-09-11T23:29:01.321Z,1.80
2022-09-11T23:31:33.825Z,1.58
2022-09-11T23:34:03.520Z,1.70
2022-09-11T23:36:30.789Z,1.52
2022-09-11T23:39:01.198Z,2.08
2022-09-11T23:41:28.871Z,1.80
2022-09-11T23:43:55.732Z,1.60
2022-09-11T23:46:22.337Z,1.85
2022-09-11T23:48:48.981Z,1.73
2022-09-11T23:51:16.224Z,1.80
2022-09-11T23:53:45.224Z,1.50
2022-09-11T23:56:14.290Z,1.73
2022-09-11T23:58:41.575Z,1.75
